Time;durP1;ratioP1;P1;durP2;ratioP2;P2;SDS_P1;SDS_P2;PMS_P1;PMS_P2;Temp;Humidity;BMP_temperature;BMP_pressure;BME280_temperature;BME280_humidity;BME280_pressure;Samples;Min_cycle;Max_cycle;Signal;HPM_P1;HPM_P2
2022/04/08 00:26:35;;;;;;;11.93;7.35;;;;;;;;;;5497771;23;20088;-95
2022/04/08 04:03:15;;;;;;;12.18;6.97;;;;;;;;;;5113872;23;20068;-94
2022/04/08 04:05:43;;;;;;;10.65;6.40;;;;;;;;;;4947904;29;20035;-95
2022/04/08 04:52:36;;;;;;;25.88;13.32;;;;;;;;;;5949956;23;20034;-95
2022/04/08 05:02:53;;;;;;;12.80;8.10;;;;;;;;;;5247442;23;20058;-94
2022/04/08 05:05:19;;;;;;;17.67;10.20;;;;;;;;;;5256503;23;20051;-96
2022/04/08 05:07:46;;;;;;;17.95;9.18;;;;;;;;;;4968864;29;20165;-95
2022/04/08 05:10:12;;;;;;;14.18;8.07;;;;;;;;;;4970101;29;20027;-96
2022/04/08 05:12:38;;;;;;;14.30;8.30;;;;;;;;;;4970340;29;20047;-96
2022/04/08 05:15:09;;;;;;;13.10;8.23;;;;;;;;;;4972390;29;20030;-96
2022/04/08 05:17:39;;;;;;;16.33;9.33;;;;;;;;;;4974996;29;20019;-96
2022/04/08 05:20:25;;;;;;;27.67;13.35;;;;;;;;;;4937555;29;20307;-96
2022/04/08 05:51:35;;;;;;;11.45;6.10;;;;;;;;;;5190837;23;20062;-95
2022/04/08 05:54:01;;;;;;;9.45;5.80;;;;;;;;;;4967867;29;20094;-96
2022/04/08 05:56:27;;;;;;;11.07;6.32;;;;;;;;;;4949663;29;20062;-94
2022/04/08 05:59:00;;;;;;;12.68;5.95;;;;;;;;;;4964207;29;20098;-96
2022/04/08 06:01:35;;;;;;;7.93;5.68;;;;;;;;;;4935896;29;20028;-95
2022/04/08 06:04:03;;;;;;;8.85;5.63;;;;;;;;;;4955983;29;20038;-96
2022/04/08 06:06:29;;;;;;;8.40;5.80;;;;;;;;;;4976673;29;20051;-94
2022/04/08 06:57:26;;;;;;;39.25;25.60;;;;;;;;;;4974882;23;20130;-95
2022/04/08 07:28:26;;;;;;;9.35;5.88;;;;;;;;;;5433123;23;20111;-93
2022/04/08 07:36:05;;;;;;;6.78;4.53;;;;;;;;;;5615350;23;20110;-96
2022/04/08 07:38:32;;;;;;;9.40;4.63;;;;;;;;;;4949831;29;20027;-96
2022/04/08 07:40:58;;;;;;;8.73;4.90;;;;;;;;;;4961750;29;20027;-91
2022/04/08 07:43:24;;;;;;;11.55;4.30;;;;;;;;;;4961768;29;20031;-90
2022/04/08 07:45:50;;;;;;;9.77;3.65;;;;;;;;;;4961640;29;20027;-92
2022/04/08 07:48:17;;;;;;;8.60;4.00;;;;;;;;;;4944653;29;20062;-91
2022/04/08 07:50:43;;;;;;;8.55;4.32;;;;;;;;;;4944124;29;20027;-90
2022/04/08 07:53:09;;;;;;;14.13;4.30;;;;;;;;;;4961469;29;20030;-92
2022/04/08 07:55:35;;;;;;;10.85;4.35;;;;;;;;;;4961348;29;20030;-90
2022/04/08 07:58:04;;;;;;;13.07;6.97;;;;;;;;;;4961521;29;20389;-91
2022/04/08 08:00:31;;;;;;;9.88;6.28;;;;;;;;;;4961412;29;20020;-90
2022/04/08 08:02:58;;;;;;;15.65;7.15;;;;;;;;;;4961205;29;20027;-90
2022/04/08 08:05:25;;;;;;;13.50;5.22;;;;;;;;;;4961670;29;20114;-92
2022/04/08 08:07:52;;;;;;;10.70;4.40;;;;;;;;;;4961385;29;20061;-90
2022/04/08 08:10:19;;;;;;;8.27;3.20;;;;;;;;;;4961185;29;20030;-91
2022/04/08 08:12:46;;;;;;;8.32;3.35;;;;;;;;;;4961084;29;20031;-91
2022/04/08 08:15:12;;;;;;;8.32;3.50;;;;;;;;;;4960956;29;20447;-90
2022/04/08 08:17:41;;;;;;;7.47;3.17;;;;;;;;;;4961069;29;20027;-90
2022/04/08 08:20:07;;;;;;;6.28;3.20;;;;;;;;;;4961000;29;20074;-91
2022/04/08 08:22:34;;;;;;;8.10;2.95;;;;;;;;;;4960922;29;20035;-91
2022/04/08 08:25:00;;;;;;;7.57;3.13;;;;;;;;;;4961345;29;20026;-91
2022/04/08 08:27:27;;;;;;;15.27;5.45;;;;;;;;;;4961137;29;20035;-90
2022/04/08 08:29:53;;;;;;;10.55;4.15;;;;;;;;;;4960857;29;20031;-90
2022/04/08 08:32:19;;;;;;;6.70;3.40;;;;;;;;;;4960741;29;20075;-90
2022/04/08 08:34:45;;;;;;;13.57;3.45;;;;;;;;;;4943610;29;20110;-91
2022/04/08 08:37:11;;;;;;;9.25;3.00;;;;;;;;;;4943576;29;20047;-89
2022/04/08 08:39:37;;;;;;;6.70;3.17;;;;;;;;;;4960825;29;20076;-90
2022/04/08 08:42:05;;;;;;;7.88;3.60;;;;;;;;;;4944334;29;20030;-90
2022/04/08 08:44:31;;;;;;;8.18;3.08;;;;;;;;;;4943802;29;20028;-90
2022/04/08 08:46:58;;;;;;;9.43;3.28;;;;;;;;;;4943169;29;20035;-90
2022/04/08 08:49:26;;;;;;;8.10;3.20;;;;;;;;;;4960461;29;20062;-91
2022/04/08 08:51:56;;;;;;;10.88;3.88;;;;;;;;;;4960323;29;20033;-91
2022/04/08 08:54:23;;;;;;;7.15;3.15;;;;;;;;;;4960684;29;20354;-90
2022/04/08 08:56:49;;;;;;;7.25;3.55;;;;;;;;;;4943436;29;20031;-91
2022/04/08 08:59:15;;;;;;;10.07;3.78;;;;;;;;;;4960564;29;20031;-90
2022/04/08 09:01:41;;;;;;;11.15;4.43;;;;;;;;;;4942568;29;20024;-89
2022/04/08 09:04:08;;;;;;;11.05;5.18;;;;;;;;;;4960196;29;20374;-91
2022/04/08 09:06:41;;;;;;;11.48;5.32;;;;;;;;;;4943249;29;20157;-91
2022/04/08 09:09:07;;;;;;;12.85;4.85;;;;;;;;;;4960194;29;20321;-90
2022/04/08 09:11:33;;;;;;;8.80;3.72;;;;;;;;;;4960025;29;20028;-90
2022/04/08 09:14:03;;;;;;;7.85;3.72;;;;;;;;;;4942742;29;20039;-91
2022/04/08 09:16:35;;;;;;;10.38;4.07;;;;;;;;;;4959831;29;20019;-90
2022/04/08 09:19:09;;;;;;;7.88;3.97;;;;;;;;;;4943224;29;20434;-91
2022/04/08 09:21:35;;;;;;;11.40;3.70;;;;;;;;;;4960093;29;20039;-90
2022/04/08 09:24:07;;;;;;;11.95;3.95;;;;;;;;;;4959950;29;20027;-90
2022/04/08 09:26:37;;;;;;;14.70;6.93;;;;;;;;;;4960135;29;20030;-91
2022/04/08 09:29:04;;;;;;;12.05;4.85;;;;;;;;;;4942853;29;20028;-90
2022/04/08 09:31:32;;;;;;;12.73;4.57;;;;;;;;;;4959771;29;20031;-90
2022/04/08 09:33:58;;;;;;;16.25;5.13;;;;;;;;;;4959967;29;20082;-90
2022/04/08 09:36:30;;;;;;;9.68;4.85;;;;;;;;;;4959610;29;20142;-91
2022/04/08 09:38:57;;;;;;;13.52;5.15;;;;;;;;;;4959751;29;20030;-92
2022/04/08 09:41:37;;;;;;;10.77;4.97;;;;;;;;;;4959805;29;20023;-90
2022/04/08 09:44:03;;;;;;;9.95;4.30;;;;;;;;;;4959557;29;20027;-90
2022/04/08 09:46:29;;;;;;;15.10;4.68;;;;;;;;;;4942980;29;20035;-90
2022/04/08 09:48:55;;;;;;;9.45;4.40;;;;;;;;;;4942630;29;20038;-91
2022/04/08 09:51:23;;;;;;;10.85;4.70;;;;;;;;;;4959531;29;20027;-90
2022/04/08 09:53:59;;;;;;;6.68;4.03;;;;;;;;;;4959566;29;20074;-90
2022/04/08 09:56:27;;;;;;;9.30;4.38;;;;;;;;;;4959806;29;20034;-90
2022/04/08 09:58:56;;;;;;;11.55;5.05;;;;;;;;;;4942571;29;20034;-90
2022/04/08 10:01:24;;;;;;;10.95;4.70;;;;;;;;;;4959474;29;20398;-91
2022/04/08 10:03:50;;;;;;;9.45;4.25;;;;;;;;;;4959537;29;20106;-88
2022/04/08 10:06:17;;;;;;;11.35;5.20;;;;;;;;;;4959344;29;20036;-90
2022/04/08 10:08:44;;;;;;;14.05;6.80;;;;;;;;;;4959258;29;20030;-90
2022/04/08 10:11:16;;;;;;;15.98;8.30;;;;;;;;;;4942331;29;20023;-89
2022/04/08 10:13:51;;;;;;;25.38;13.80;;;;;;;;;;4961134;28;20039;-90
2022/04/08 10:16:18;;;;;;;16.92;9.13;;;;;;;;;;4963191;29;20027;-91
2022/04/08 10:18:45;;;;;;;11.48;6.82;;;;;;;;;;4946419;29;20019;-90
2022/04/08 10:21:11;;;;;;;11.65;5.85;;;;;;;;;;4963277;29;20031;-91
2022/04/08 10:23:39;;;;;;;10.20;5.78;;;;;;;;;;4963069;29;20035;-91
2022/04/08 10:26:07;;;;;;;11.38;5.75;;;;;;;;;;4963050;29;20436;-90
2022/04/08 10:28:37;;;;;;;12.52;5.20;;;;;;;;;;4946239;29;20024;-89
2022/04/08 10:31:13;;;;;;;13.75;5.63;;;;;;;;;;4963329;29;20455;-89
2022/04/08 10:33:46;;;;;;;12.35;5.57;;;;;;;;;;4962977;29;20031;-91
2022/04/08 10:36:13;;;;;;;12.38;6.20;;;;;;;;;;4962780;29;20134;-90
2022/04/08 10:38:39;;;;;;;12.32;6.30;;;;;;;;;;4962780;29;20043;-90
2022/04/08 10:41:09;;;;;;;13.60;6.15;;;;;;;;;;4962521;29;20034;-90
2022/04/08 10:43:48;;;;;;;11.38;5.80;;;;;;;;;;4963074;29;20031;-91
2022/04/08 10:46:28;;;;;;;9.50;5.78;;;;;;;;;;4962764;29;20062;-90
2022/04/08 10:48:57;;;;;;;11.45;6.10;;;;;;;;;;4946069;29;20408;-90
2022/04/08 10:51:23;;;;;;;10.82;6.40;;;;;;;;;;4945597;29;20043;-90
2022/04/08 10:53:50;;;;;;;11.13;6.20;;;;;;;;;;4945751;29;20322;-91
2022/04/08 10:56:16;;;;;;;13.93;7.00;;;;;;;;;;4962665;29;20248;-92
2022/04/08 10:58:42;;;;;;;15.35;6.38;;;;;;;;;;4945725;29;20023;-91
2022/04/08 11:01:24;;;;;;;12.60;7.00;;;;;;;;;;4962570;29;20019;-91
2022/04/08 11:03:53;;;;;;;14.68;8.07;;;;;;;;;;4962576;29;20429;-90
2022/04/08 11:06:19;;;;;;;14.73;7.65;;;;;;;;;;4962683;29;20385;-90
2022/04/08 11:08:45;;;;;;;12.25;6.55;;;;;;;;;;4962433;29;20051;-90
2022/04/08 11:11:11;;;;;;;9.88;5.97;;;;;;;;;;4962333;29;20027;-91
2022/04/08 11:13:41;;;;;;;10.90;5.95;;;;;;;;;;4945374;29;20031;-91
2022/04/08 11:16:08;;;;;;;17.90;7.78;;;;;;;;;;4962168;29;20031;-91
2022/04/08 11:18:34;;;;;;;12.75;7.30;;;;;;;;;;4961928;29;20027;-91
2022/04/08 11:21:01;;;;;;;11.88;7.18;;;;;;;;;;4962182;29;20471;-90
2022/04/08 11:23:27;;;;;;;11.25;7.00;;;;;;;;;;4945181;29;20058;-91
2022/04/08 11:25:54;;;;;;;11.65;6.38;;;;;;;;;;4961244;28;20030;-90
2022/04/08 11:28:22;;;;;;;11.43;6.60;;;;;;;;;;4928934;29;20039;-91
2022/04/08 11:30:54;;;;;;;12.38;6.55;;;;;;;;;;4945183;29;20031;-91
2022/04/08 11:33:20;;;;;;;13.13;6.40;;;;;;;;;;4945036;29;20409;-90
2022/04/08 11:35:47;;;;;;;11.45;5.40;;;;;;;;;;4961624;29;20495;-90
2022/04/08 11:38:16;;;;;;;7.00;4.80;;;;;;;;;;4961973;29;20034;-90
2022/04/08 11:40:43;;;;;;;8.82;5.07;;;;;;;;;;4961638;29;20090;-90
2022/04/08 11:43:12;;;;;;;10.23;5.70;;;;;;;;;;4961791;29;20027;-89
2022/04/08 11:45:38;;;;;;;8.07;5.13;;;;;;;;;;4944755;29;20031;-91
2022/04/08 11:48:06;;;;;;;8.88;5.40;;;;;;;;;;4961610;29;20098;-91
2022/04/08 11:50:37;;;;;;;7.88;4.65;;;;;;;;;;4961554;29;20409;-90
2022/04/08 11:53:03;;;;;;;12.07;4.82;;;;;;;;;;4961799;29;20027;-90
2022/04/08 11:55:29;;;;;;;7.78;3.90;;;;;;;;;;4961622;29;20073;-90
2022/04/08 11:57:55;;;;;;;10.68;3.97;;;;;;;;;;4961594;29;20102;-90
2022/04/08 12:00:25;;;;;;;12.75;4.00;;;;;;;;;;4961703;29;20027;-90
2022/04/08 12:02:51;;;;;;;11.02;3.97;;;;;;;;;;4961610;29;20068;-90
2022/04/08 12:05:31;;;;;;;11.23;4.35;;;;;;;;;;4961190;29;20031;-90
2022/04/08 12:07:59;;;;;;;7.07;3.35;;;;;;;;;;4944104;29;20031;-90
2022/04/08 12:10:28;;;;;;;8.55;3.65;;;;;;;;;;4944207;29;20027;-92
2022/04/08 12:12:54;;;;;;;10.02;3.55;;;;;;;;;;4961291;29;20027;-91
2022/04/08 12:15:23;;;;;;;11.25;4.28;;;;;;;;;;4961153;29;20067;-90
2022/04/08 12:17:52;;;;;;;6.63;3.90;;;;;;;;;;4944109;29;20031;-90
2022/04/08 12:20:20;;;;;;;9.63;4.47;;;;;;;;;;4961402;29;20384;-90
2022/04/08 12:22:47;;;;;;;7.38;3.70;;;;;;;;;;4961148;29;20370;-89
2022/04/08 12:25:14;;;;;;;7.93;3.80;;;;;;;;;;4943891;29;20027;-91
2022/04/08 12:27:40;;;;;;;11.35;4.10;;;;;;;;;;4960806;29;20401;-91
2022/04/08 12:30:08;;;;;;;10.40;3.75;;;;;;;;;;4960677;29;20055;-90
2022/04/08 12:32:35;;;;;;;8.23;3.40;;;;;;;;;;4944031;29;20110;-90
2022/04/08 12:35:01;;;;;;;9.57;3.78;;;;;;;;;;4943533;29;20426;-91
2022/04/08 12:37:27;;;;;;;9.02;3.67;;;;;;;;;;4960097;28;20047;-87
2022/04/08 12:39:53;;;;;;;9.05;3.55;;;;;;;;;;4943180;29;20035;-90
2022/04/08 12:42:19;;;;;;;11.60;3.55;;;;;;;;;;4960531;29;20023;-90
2022/04/08 12:44:45;;;;;;;6.95;3.30;;;;;;;;;;4943645;29;20453;-90
2022/04/08 12:47:13;;;;;;;9.13;3.95;;;;;;;;;;4943640;29;20027;-91
2022/04/08 12:49:39;;;;;;;8.80;3.65;;;;;;;;;;4960442;29;20031;-90
2022/04/08 12:52:06;;;;;;;7.63;4.28;;;;;;;;;;4960448;29;20473;-90
2022/04/08 12:54:32;;;;;;;10.13;4.80;;;;;;;;;;4943438;29;20406;-90
2022/04/08 12:56:58;;;;;;;8.63;3.67;;;;;;;;;;4960258;29;20023;-90
2022/04/08 12:59:24;;;;;;;10.25;4.15;;;;;;;;;;4959876;29;20035;-90
2022/04/08 13:01:50;;;;;;;10.88;4.28;;;;;;;;;;4960495;29;20031;-89
2022/04/08 13:04:16;;;;;;;11.55;4.28;;;;;;;;;;4960356;29;20066;-89
2022/04/08 13:06:42;;;;;;;11.25;4.93;;;;;;;;;;4960380;29;20074;-89
2022/04/08 13:09:08;;;;;;;7.75;4.32;;;;;;;;;;4959942;29;20329;-89
2022/04/08 13:11:34;;;;;;;11.00;3.80;;;;;;;;;;4960208;29;20031;-90
2022/04/08 13:14:00;;;;;;;8.77;3.30;;;;;;;;;;4960186;29;20035;-90
2022/04/08 13:16:27;;;;;;;9.90;3.92;;;;;;;;;;4960090;29;20031;-89
2022/04/08 13:18:53;;;;;;;6.43;3.63;;;;;;;;;;4960062;29;20425;-90
2022/04/08 13:21:19;;;;;;;12.63;4.13;;;;;;;;;;4960070;29;20027;-91
2022/04/08 13:23:45;;;;;;;9.27;3.47;;;;;;;;;;4943164;29;20051;-89
2022/04/08 13:26:11;;;;;;;9.88;3.72;;;;;;;;;;4959919;29;20310;-90
2022/04/08 13:28:37;;;;;;;8.82;3.30;;;;;;;;;;4959940;29;20027;-90
2022/04/08 13:31:03;;;;;;;7.40;3.10;;;;;;;;;;4959852;29;20414;-90
2022/04/08 13:33:29;;;;;;;8.20;3.50;;;;;;;;;;4943062;29;20464;-90
2022/04/08 13:35:57;;;;;;;7.88;3.70;;;;;;;;;;4942837;29;20413;-89
2022/04/08 13:38:25;;;;;;;9.55;4.10;;;;;;;;;;4942952;29;20082;-90
2022/04/08 13:40:52;;;;;;;7.90;3.55;;;;;;;;;;4959601;29;20046;-90
2022/04/08 13:43:18;;;;;;;8.30;3.55;;;;;;;;;;4959647;29;20026;-90
2022/04/08 13:45:44;;;;;;;6.80;3.05;;;;;;;;;;4959484;29;20031;-91
2022/04/08 13:48:10;;;;;;;8.52;3.67;;;;;;;;;;4958990;28;20109;-91
2022/04/08 13:50:36;;;;;;;9.27;3.45;;;;;;;;;;4942735;29;20039;-90
2022/04/08 13:53:02;;;;;;;9.38;3.95;;;;;;;;;;4959774;29;20267;-89
2022/04/08 13:55:28;;;;;;;9.45;3.80;;;;;;;;;;4926850;29;20039;-91
2022/04/08 13:57:54;;;;;;;10.77;3.72;;;;;;;;;;4960807;29;20082;-92
2022/04/08 14:00:20;;;;;;;7.55;3.72;;;;;;;;;;4959522;29;20031;-94
2022/04/08 14:02:47;;;;;;;6.95;3.25;;;;;;;;;;4959405;29;20028;-92
2022/04/08 14:05:13;;;;;;;10.88;4.00;;;;;;;;;;4942486;29;20043;-92
2022/04/08 14:07:39;;;;;;;12.73;3.92;;;;;;;;;;4959569;29;20050;-93
2022/04/08 14:10:05;;;;;;;10.85;3.65;;;;;;;;;;4959352;29;20398;-91
2022/04/08 14:12:32;;;;;;;23.38;5.88;;;;;;;;;;4954941;29;20059;-91
2022/04/08 14:14:58;;;;;;;8.05;3.80;;;;;;;;;;4955295;28;20019;-92
2022/04/08 14:17:24;;;;;;;8.27;3.60;;;;;;;;;;4933908;29;20059;-92
2022/04/08 14:19:50;;;;;;;8.88;3.17;;;;;;;;;;4952400;29;20020;-91
2022/04/08 14:22:16;;;;;;;5.00;2.70;;;;;;;;;;4951070;29;20323;-90
2022/04/08 14:24:42;;;;;;;6.28;3.10;;;;;;;;;;4923335;29;20032;-92
2022/04/08 14:27:08;;;;;;;5.10;3.00;;;;;;;;;;4952888;29;20128;-92
2022/04/08 14:29:34;;;;;;;7.72;2.67;;;;;;;;;;4936494;29;20035;-93
2022/04/08 14:32:00;;;;;;;7.28;3.00;;;;;;;;;;4959729;29;20338;-90
2022/04/08 14:34:26;;;;;;;6.25;2.90;;;;;;;;;;4959493;29;20035;-92
2022/04/08 14:36:52;;;;;;;9.73;3.20;;;;;;;;;;4958945;29;20058;-91
2022/04/08 14:39:19;;;;;;;7.63;3.25;;;;;;;;;;4942280;29;20027;-91
2022/04/08 14:41:45;;;;;;;7.82;2.80;;;;;;;;;;4942386;29;20071;-91
2022/04/08 14:44:11;;;;;;;7.05;3.30;;;;;;;;;;4941548;29;20338;-90
2022/04/08 14:46:38;;;;;;;7.30;2.50;;;;;;;;;;4959081;29;20547;-93
2022/04/08 14:49:09;;;;;;;8.15;3.03;;;;;;;;;;4958956;28;20078;-93
2022/04/08 14:51:35;;;;;;;9.90;3.15;;;;;;;;;;4960197;28;20055;-94
2022/04/08 14:54:02;;;;;;;9.35;4.25;;;;;;;;;;4958714;29;20023;-93
2022/04/08 14:56:28;;;;;;;22.00;3.17;;;;;;;;;;4960200;28;20414;-93
2022/04/08 14:58:54;;;;;;;9.18;3.08;;;;;;;;;;4962063;28;20024;-94
2022/04/08 15:01:20;;;;;;;15.50;3.85;;;;;;;;;;4944280;29;20031;-93
2022/04/08 15:03:47;;;;;;;11.90;3.53;;;;;;;;;;4962406;29;20035;-93
2022/04/08 15:06:14;;;;;;;10.73;3.65;;;;;;;;;;4945591;29;20035;-94
2022/04/08 15:08:40;;;;;;;10.30;4.68;;;;;;;;;;4962398;29;20038;-93
2022/04/08 15:11:06;;;;;;;12.43;4.20;;;;;;;;;;4962693;29;20156;-93
2022/04/08 15:13:33;;;;;;;9.80;4.40;;;;;;;;;;4945595;29;20035;-93
2022/04/08 15:15:59;;;;;;;6.93;3.30;;;;;;;;;;4944539;29;20107;-94
2022/04/08 15:18:25;;;;;;;11.88;3.53;;;;;;;;;;4945414;29;20035;-93
2022/04/08 15:20:52;;;;;;;10.63;3.85;;;;;;;;;;4962128;29;20106;-93
2022/04/08 15:23:18;;;;;;;11.95;3.45;;;;;;;;;;4962142;29;20103;-93
2022/04/08 15:25:45;;;;;;;9.90;3.63;;;;;;;;;;4961986;29;20028;-93
2022/04/08 15:28:11;;;;;;;14.13;4.10;;;;;;;;;;4961995;29;20038;-94
2022/04/08 15:30:37;;;;;;;10.18;3.38;;;;;;;;;;4945213;29;20023;-93
2022/04/08 15:33:03;;;;;;;6.68;3.45;;;;;;;;;;4961933;29;20027;-93
2022/04/08 15:35:33;;;;;;;9.73;3.42;;;;;;;;;;4962061;29;20316;-93
2022/04/08 15:37:59;;;;;;;14.77;4.50;;;;;;;;;;4961679;29;20020;-94
2022/04/08 15:40:26;;;;;;;12.23;4.25;;;;;;;;;;4962008;29;20031;-93
2022/04/08 15:42:53;;;;;;;7.72;4.15;;;;;;;;;;4961931;29;20062;-93
2022/04/08 15:45:19;;;;;;;9.02;3.60;;;;;;;;;;4944055;29;20365;-93
2022/04/08 15:47:45;;;;;;;13.13;4.72;;;;;;;;;;4961797;29;20027;-93
2022/04/08 15:50:11;;;;;;;14.13;4.93;;;;;;;;;;4961643;29;20414;-93
2022/04/08 15:52:37;;;;;;;13.48;4.45;;;;;;;;;;4961388;29;20019;-93
2022/04/08 15:55:04;;;;;;;10.18;4.00;;;;;;;;;;4944563;29;20418;-93
2022/04/08 15:57:30;;;;;;;10.23;4.72;;;;;;;;;;4958374;29;20434;-92
2022/04/08 15:59:56;;;;;;;12.27;4.88;;;;;;;;;;4947618;29;20422;-94
2022/04/08 16:02:22;;;;;;;9.13;4.10;;;;;;;;;;4942247;29;20084;-95
2022/04/08 16:04:50;;;;;;;11.07;4.18;;;;;;;;;;4925507;29;20034;-93
2022/04/08 16:07:16;;;;;;;13.02;4.20;;;;;;;;;;4925954;29;20044;-93
2022/04/08 16:09:42;;;;;;;10.95;4.07;;;;;;;;;;4926035;29;20054;-94
2022/04/08 16:12:08;;;;;;;12.85;4.22;;;;;;;;;;4944480;29;20028;-95
2022/04/08 16:14:36;;;;;;;9.55;4.53;;;;;;;;;;4949507;29;20032;-96
2022/04/08 16:19:43;;;;;;;16.13;5.00;;;;;;;;;;5531005;23;20056;-96
2022/04/08 16:22:10;;;;;;;9.40;4.25;;;;;;;;;;4987107;23;20071;-96
2022/04/08 16:27:47;;;;;;;11.38;4.97;;;;;;;;;;4928256;29;20072;-96
2022/04/08 16:30:14;;;;;;;9.43;3.78;;;;;;;;;;4923112;29;20029;-96
2022/04/08 16:32:41;;;;;;;8.10;4.10;;;;;;;;;;4934071;23;20040;-96
2022/04/08 16:35:45;;;;;;;9.70;4.40;;;;;;;;;;4977211;23;20079;-96
2022/04/08 16:38:23;;;;;;;13.07;5.32;;;;;;;;;;4943308;29;20410;-96
2022/04/08 16:40:49;;;;;;;12.30;6.05;;;;;;;;;;4942865;29;20148;-96
2022/04/08 16:43:15;;;;;;;11.25;5.00;;;;;;;;;;4941699;29;20031;-96
2022/04/08 16:45:45;;;;;;;11.48;4.68;;;;;;;;;;4925079;29;20063;-95
2022/04/08 16:48:11;;;;;;;10.63;5.28;;;;;;;;;;4941630;29;20103;-95
2022/04/08 16:50:37;;;;;;;12.52;4.78;;;;;;;;;;4941245;29;20414;-96
2022/04/08 16:53:06;;;;;;;11.20;4.78;;;;;;;;;;4941765;29;20039;-96
2022/04/08 16:55:34;;;;;;;9.50;4.78;;;;;;;;;;4942075;29;20102;-94
2022/04/08 16:58:01;;;;;;;9.43;4.90;;;;;;;;;;4941758;29;20024;-96
2022/04/08 17:00:27;;;;;;;15.00;5.45;;;;;;;;;;4942263;29;20016;-95
2022/04/08 17:02:59;;;;;;;11.90;5.68;;;;;;;;;;4930414;29;20027;-95
2022/04/08 17:05:26;;;;;;;19.20;8.10;;;;;;;;;;5157729;23;20063;-96
2022/04/08 17:07:52;;;;;;;16.30;6.05;;;;;;;;;;4942407;29;20028;-96
2022/04/08 17:10:21;;;;;;;13.35;6.43;;;;;;;;;;4947982;29;20046;-96
2022/04/08 17:12:57;;;;;;;11.98;6.85;;;;;;;;;;4991896;23;20056;-96
2022/04/08 17:18:17;;;;;;;24.17;10.88;;;;;;;;;;5078842;23;19965;-96
2022/04/08 17:21:02;;;;;;;17.52;10.52;;;;;;;;;;5056005;23;20050;-95
2022/04/08 17:24:00;;;;;;;;;;;;;;;;;;;;;
2022/04/08 17:29:34;;;;;;;16.95;8.35;;;;;;;;;;4975514;29;20034;-96
2022/04/08 17:32:00;;;;;;;13.65;6.50;;;;;;;;;;4974014;29;20023;-95
2022/04/08 17:37:02;;;;;;;15.63;8.32;;;;;;;;;;4977676;23;20125;-96
2022/04/08 17:39:29;;;;;;;14.35;6.90;;;;;;;;;;4966120;29;20386;-96
2022/04/08 17:41:55;;;;;;;15.75;8.45;;;;;;;;;;4965984;29;20044;-95
2022/04/08 17:44:22;;;;;;;14.05;7.85;;;;;;;;;;4950277;29;20027;-96
2022/04/08 17:46:48;;;;;;;13.32;6.25;;;;;;;;;;4947976;29;20370;-96
2022/04/08 17:49:14;;;;;;;14.60;6.35;;;;;;;;;;4968479;29;20394;-96
2022/04/08 17:51:48;;;;;;;16.65;6.05;;;;;;;;;;4965325;29;20038;-97
2022/04/08 17:54:17;;;;;;;14.18;6.53;;;;;;;;;;4966020;29;20027;-96
2022/04/08 17:59:47;;;;;;;12.93;7.32;;;;;;;;;;4976760;23;20346;-96
2022/04/08 18:02:17;;;;;;;10.52;5.78;;;;;;;;;;4951487;29;20448;-95
2022/04/08 18:04:46;;;;;;;15.20;6.63;;;;;;;;;;4951421;29;20064;-95
2022/04/08 18:07:12;;;;;;;14.00;7.03;;;;;;;;;;4969679;29;20079;-96
2022/04/08 18:09:38;;;;;;;16.42;7.03;;;;;;;;;;4966872;29;20031;-95
2022/04/08 18:12:05;;;;;;;18.33;9.25;;;;;;;;;;4948692;29;20031;-96
2022/04/08 18:14:31;;;;;;;15.98;8.73;;;;;;;;;;4948487;29;20082;-96
2022/04/08 18:16:58;;;;;;;30.52;14.77;;;;;;;;;;4965101;29;20039;-96
2022/04/08 18:19:28;;;;;;;31.17;18.27;;;;;;;;;;4973079;29;20019;-96
2022/04/08 18:22:00;;;;;;;30.90;18.40;;;;;;;;;;4955295;29;20016;-96
2022/04/08 18:24:31;;;;;;;37.85;19.75;;;;;;;;;;4956656;29;20036;-96
2022/04/08 18:27:18;;;;;;;39.75;25.30;;;;;;;;;;4973613;29;20091;-96
2022/04/08 18:29:51;;;;;;;27.08;15.82;;;;;;;;;;4973311;29;20035;-96
2022/04/08 18:32:20;;;;;;;14.80;10.38;;;;;;;;;;4958046;29;20421;-96
2022/04/08 18:34:51;;;;;;;15.05;9.75;;;;;;;;;;4977472;28;20055;-96
2022/04/08 18:37:21;;;;;;;15.82;8.65;;;;;;;;;;4962849;29;20042;-95
2022/04/08 18:43:02;;;;;;;14.18;8.45;;;;;;;;;;4979937;29;20038;-96
2022/04/08 18:55:59;;;;;;;24.17;14.43;;;;;;;;;;5053358;23;20059;-96
2022/04/08 18:58:25;;;;;;;20.10;12.35;;;;;;;;;;4971604;29;20027;-95
2022/04/08 19:01:01;;;;;;;22.42;12.40;;;;;;;;;;4970585;29;20024;-96
2022/04/08 19:03:30;;;;;;;22.08;12.60;;;;;;;;;;4972743;29;20032;-96
2022/04/08 19:06:05;;;;;;;19.80;11.38;;;;;;;;;;4967343;29;20042;-96
2022/04/08 19:08:56;;;;;;;17.48;10.88;;;;;;;;;;4979328;29;20051;-96
2022/04/08 19:13:57;;;;;;;15.80;10.63;;;;;;;;;;4918391;29;20152;-96
2022/04/08 19:16:34;;;;;;;21.65;12.93;;;;;;;;;;4919625;29;20036;-96
2022/04/08 19:19:12;;;;;;;22.77;14.43;;;;;;;;;;4922878;29;20025;-96
2022/04/08 19:21:43;;;;;;;25.73;15.15;;;;;;;;;;4922405;29;20040;-95
2022/04/08 19:24:25;;;;;;;19.88;12.27;;;;;;;;;;4906351;29;20071;-96
2022/04/08 19:34:50;;;;;;;18.55;10.93;;;;;;;;;;4915417;29;20434;-96
2022/04/08 19:37:16;;;;;;;22.38;11.90;;;;;;;;;;4910739;29;20031;-95
2022/04/08 19:39:43;;;;;;;19.67;11.75;;;;;;;;;;4901088;29;20020;-95
2022/04/08 19:42:09;;;;;;;27.38;13.15;;;;;;;;;;4933201;29;20028;-96
2022/04/08 19:44:37;;;;;;;26.67;14.38;;;;;;;;;;4917745;29;20027;-96
2022/04/08 19:47:08;;;;;;;29.17;18.40;;;;;;;;;;4933331;29;20119;-96
2022/04/08 19:49:43;;;;;;;30.97;17.47;;;;;;;;;;4936707;29;20028;-96
2022/04/08 20:08:11;;;;;;;45.50;22.90;;;;;;;;;;4996657;23;20078;-95
2022/04/08 20:10:37;;;;;;;44.63;24.10;;;;;;;;;;4961159;29;20062;-94
2022/04/08 20:13:03;;;;;;;49.50;25.90;;;;;;;;;;4961473;29;20053;-95
2022/04/08 20:15:31;;;;;;;57.47;29.13;;;;;;;;;;4944495;29;20419;-95
2022/04/08 20:17:57;;;;;;;54.53;28.52;;;;;;;;;;4945970;29;20058;-95
2022/04/08 20:20:24;;;;;;;47.10;27.08;;;;;;;;;;4946617;29;20031;-96
2022/04/08 20:22:51;;;;;;;44.60;23.35;;;;;;;;;;4961216;29;20023;-94
2022/04/08 20:25:17;;;;;;;121.78;64.30;;;;;;;;;;4961226;29;20019;-95
2022/04/08 20:27:43;;;;;;;77.72;46.08;;;;;;;;;;4943632;29;20045;-96
2022/04/08 20:30:09;;;;;;;37.70;23.35;;;;;;;;;;4960927;29;20321;-96
2022/04/08 20:32:36;;;;;;;30.92;17.48;;;;;;;;;;4960633;29;20027;-96
2022/04/08 20:35:02;;;;;;;28.17;16.25;;;;;;;;;;4944323;29;20023;-95
2022/04/08 20:37:28;;;;;;;28.50;15.88;;;;;;;;;;4944034;29;20402;-96
2022/04/08 20:39:54;;;;;;;28.42;15.73;;;;;;;;;;4960844;29;20041;-94
2022/04/08 20:42:20;;;;;;;31.45;16.35;;;;;;;;;;4960909;29;20098;-94
2022/04/08 20:44:46;;;;;;;28.10;15.48;;;;;;;;;;4943134;29;20417;-95
2022/04/08 20:47:13;;;;;;;30.48;18.50;;;;;;;;;;4960757;29;20058;-96
2022/04/08 20:49:39;;;;;;;35.38;20.33;;;;;;;;;;4942856;29;20043;-96
2022/04/08 20:52:05;;;;;;;47.72;26.02;;;;;;;;;;4960539;29;20038;-95
2022/04/08 20:54:31;;;;;;;57.25;32.22;;;;;;;;;;4960288;29;20050;-95
2022/04/08 20:56:57;;;;;;;35.42;19.23;;;;;;;;;;4939562;29;20016;-95
2022/04/08 20:59:24;;;;;;;43.22;21.33;;;;;;;;;;4927033;29;20035;-95
2022/04/08 21:01:53;;;;;;;43.58;24.90;;;;;;;;;;4941300;29;20023;-95
2022/04/08 21:04:20;;;;;;;41.45;24.17;;;;;;;;;;4924317;29;20028;-94
2022/04/08 21:06:47;;;;;;;47.00;26.08;;;;;;;;;;4941102;29;20386;-96
2022/04/08 21:09:13;;;;;;;45.40;26.80;;;;;;;;;;4941171;29;20078;-96
2022/04/08 21:11:39;;;;;;;33.42;19.60;;;;;;;;;;4940961;29;20024;-95
2022/04/08 21:14:05;;;;;;;30.33;20.27;;;;;;;;;;4924398;29;20039;-95
2022/04/08 21:16:32;;;;;;;24.02;12.07;;;;;;;;;;4940976;29;20028;-96
2022/04/08 21:18:58;;;;;;;21.58;12.07;;;;;;;;;;4941011;29;20035;-95
2022/04/08 21:21:25;;;;;;;16.80;9.32;;;;;;;;;;4940868;29;20024;-96
2022/04/08 21:23:51;;;;;;;15.80;8.85;;;;;;;;;;4923997;29;20418;-95
2022/04/08 21:26:17;;;;;;;13.40;7.88;;;;;;;;;;4924009;29;20066;-96
2022/04/08 21:28:43;;;;;;;15.15;8.23;;;;;;;;;;4940837;29;20055;-94
2022/04/08 21:31:10;;;;;;;20.65;7.55;;;;;;;;;;4941318;29;20031;-96
2022/04/08 21:33:37;;;;;;;12.15;8.35;;;;;;;;;;4924017;29;20107;-96
2022/04/08 21:36:04;;;;;;;13.35;8.15;;;;;;;;;;4940105;29;20191;-96
2022/04/08 21:38:30;;;;;;;16.88;7.80;;;;;;;;;;4923618;29;20042;-95
2022/04/08 21:40:56;;;;;;;17.73;6.70;;;;;;;;;;4923730;29;20114;-95
2022/04/08 21:43:22;;;;;;;14.18;7.50;;;;;;;;;;4924037;29;20024;-94
2022/04/08 21:45:48;;;;;;;10.98;6.43;;;;;;;;;;4940519;29;20035;-95
2022/04/08 21:48:14;;;;;;;12.50;6.65;;;;;;;;;;4923993;29;20061;-94
2022/04/08 21:50:41;;;;;;;12.60;7.43;;;;;;;;;;4940560;29;20028;-96
2022/04/08 21:53:07;;;;;;;12.23;7.18;;;;;;;;;;4940320;29;20024;-95
2022/04/08 21:55:46;;;;;;;15.23;8.05;;;;;;;;;;4940397;29;20410;-95
2022/04/08 21:58:12;;;;;;;15.13;7.18;;;;;;;;;;4940372;29;20031;-96
2022/04/08 22:00:43;;;;;;;12.70;6.88;;;;;;;;;;4940450;29;20070;-96
2022/04/08 22:03:09;;;;;;;9.77;5.72;;;;;;;;;;4923669;29;20019;-94
2022/04/08 22:05:35;;;;;;;12.68;5.80;;;;;;;;;;4940350;29;20024;-96
2022/04/08 22:08:02;;;;;;;11.95;6.05;;;;;;;;;;4940429;29;20054;-94
2022/04/08 22:10:28;;;;;;;10.98;6.20;;;;;;;;;;4940591;29;20042;-96
2022/04/08 22:12:54;;;;;;;11.55;5.88;;;;;;;;;;4923588;29;20116;-95
2022/04/08 22:15:22;;;;;;;9.38;4.82;;;;;;;;;;4923608;29;20023;-95
2022/04/08 22:17:49;;;;;;;10.38;4.47;;;;;;;;;;4940269;29;20028;-95